createdAt,value
2023-02-17T00:00:32.996Z,24.47
2023-02-17T00:01:32.971Z,24.46
2023-02-17T00:02:33.004Z,24.47
2023-02-17T00:03:32.945Z,24.44
2023-02-17T00:04:32.890Z,24.46
2023-02-17T00:05:32.860Z,24.46
2023-02-17T00:06:32.859Z,24.47
2023-02-17T00:55:32.900Z,24.47
2023-02-17T00:58:33.781Z,24.46
2023-02-17T01:00:33.706Z,24.48
2023-02-17T01:04:33.605Z,24.50
2023-02-17T01:05:33.514Z,24.47
2023-02-17T01:06:33.484Z,24.47
2023-02-17T01:07:33.456Z,24.47
2023-02-17T01:08:33.411Z,24.50
2023-02-17T01:09:33.402Z,24.48
2023-02-17T01:10:33.345Z,24.47
2023-02-17T01:11:33.363Z,24.47
2023-02-17T01:12:33.296Z,24.47
2023-02-17T01:13:33.256Z,24.50
2023-02-17T01:14:33.251Z,24.47
2023-02-17T01:15:33.190Z,24.46
2023-02-17T01:16:33.149Z,24.47
2023-02-17T01:17:33.111Z,24.46
2023-02-17T01:18:33.085Z,24.44
2023-02-17T01:19:33.056Z,24.44
2023-02-17T01:20:33.017Z,24.46
2023-02-17T01:21:32.961Z,24.46
2023-02-17T01:22:32.914Z,24.44
2023-02-17T01:23:32.885Z,24.46
2023-02-17T01:24:32.865Z,24.46
2023-02-17T01:25:32.810Z,24.47
2023-02-17T01:26:32.784Z,24.46
2023-02-17T01:27:32.871Z,24.47
2023-02-17T01:28:32.729Z,24.46
2023-02-17T01:29:32.716Z,24.47
2023-02-17T01:30:32.666Z,24.46
2023-02-17T01:31:32.778Z,24.47
2023-02-17T01:32:32.605Z,24.46
2023-02-17T01:33:32.557Z,24.44
2023-02-17T01:34:32.535Z,24.43
2023-02-17T01:35:32.490Z,24.46
2023-02-17T01:36:32.462Z,24.46
2023-02-17T01:37:32.425Z,24.47
2023-02-17T01:38:32.376Z,24.47
2023-02-17T01:39:32.351Z,24.46
2023-02-17T01:40:32.327Z,24.47
2023-02-17T01:41:32.286Z,24.46
2023-02-17T01:42:32.261Z,24.44
2023-02-17T01:43:32.254Z,24.47
2023-02-17T01:44:32.213Z,24.46
2023-02-17T01:45:32.187Z,24.47
2023-02-17T01:46:32.179Z,24.46
2023-02-17T01:47:32.098Z,24.46
2023-02-17T01:48:32.065Z,24.46
2023-02-17T01:49:32.021Z,24.50
2023-02-17T01:50:31.998Z,24.44
2023-02-17T01:51:31.952Z,24.47
2023-02-17T01:52:31.923Z,24.47
2023-02-17T01:53:31.885Z,24.44
2023-02-17T01:54:31.871Z,24.44
2023-02-17T01:55:31.831Z,24.47
2023-02-17T01:56:31.809Z,24.46
2023-02-17T01:57:31.774Z,24.46
2023-02-17T01:58:31.736Z,24.46
2023-02-17T01:59:31.733Z,24.44
2023-02-17T02:00:31.680Z,24.46
2023-02-17T02:01:31.785Z,24.46
2023-02-17T02:02:31.721Z,24.46
2023-02-17T02:03:31.581Z,24.47
2023-02-17T02:04:31.547Z,24.46
2023-02-17T02:05:31.535Z,24.44
2023-02-17T02:06:31.482Z,24.44
2023-02-17T02:07:31.446Z,24.46
2023-02-17T02:08:31.411Z,24.46
2023-02-17T02:09:31.384Z,24.46
2023-02-17T02:10:31.358Z,24.47
2023-02-17T02:11:31.330Z,24.43
2023-02-17T02:12:31.292Z,24.44
2023-02-17T02:13:31.266Z,24.46
2023-02-17T02:14:31.213Z,24.46
2023-02-17T02:15:31.195Z,24.46
2023-02-17T02:16:31.188Z,24.46
2023-02-17T02:17:31.095Z,24.44
2023-02-17T02:18:31.058Z,24.46
2023-02-17T02:19:31.027Z,24.44
2023-02-17T02:20:31.001Z,24.46
2023-02-17T02:21:31.481Z,24.47
2023-02-17T02:22:30.917Z,24.47
2023-02-17T02:23:30.901Z,24.47
2023-02-17T02:24:30.858Z,24.46
2023-02-17T02:25:30.808Z,24.44
2023-02-17T02:26:30.762Z,24.46
2023-02-17T02:27:30.731Z,24.46
2023-02-17T02:28:30.689Z,24.47
2023-02-17T02:29:30.645Z,24.46
2023-02-17T02:30:30.641Z,24.46
2023-02-17T02:31:30.788Z,24.44
2023-02-17T02:32:30.546Z,24.44
2023-02-17T02:33:30.515Z,24.43
2023-02-17T02:34:30.497Z,24.47
2023-02-17T02:35:30.467Z,24.44
2023-02-17T02:36:30.438Z,24.44
2023-02-17T02:37:30.412Z,24.44
2023-02-17T02:38:30.390Z,24.46
2023-02-17T02:39:30.352Z,24.44
2023-02-17T02:40:30.326Z,24.46
2023-02-17T02:41:30.308Z,24.46
2023-02-17T02:42:30.276Z,24.44
2023-02-17T02:43:30.236Z,24.44
2023-02-17T02:44:30.210Z,24.43
2023-02-17T02:45:30.273Z,24.46
2023-02-17T02:46:30.162Z,24.43
2023-02-17T02:47:30.136Z,24.44
2023-02-17T02:48:30.083Z,24.44
2023-02-17T02:49:30.055Z,24.44
2023-02-17T02:50:30.001Z,24.46
2023-02-17T02:51:29.976Z,24.44
2023-02-17T02:52:29.933Z,24.46
2023-02-17T02:53:29.897Z,24.47
2023-02-17T02:54:29.875Z,24.43
2023-02-17T02:55:29.830Z,24.46
2023-02-17T02:56:29.805Z,24.43
2023-02-17T02:57:29.764Z,24.43
2023-02-17T02:58:29.734Z,24.46
2023-02-17T02:59:29.707Z,24.44
2023-02-17T03:00:30.497Z,24.46
2023-02-17T03:01:29.650Z,24.43
2023-02-17T03:02:29.628Z,24.43
2023-02-17T03:03:29.631Z,24.43
2023-02-17T03:04:29.555Z,24.41
2023-02-17T03:05:29.524Z,24.41
2023-02-17T03:06:29.489Z,24.44
2023-02-17T03:07:29.464Z,24.43
2023-02-17T03:08:29.444Z,24.43
2023-02-17T03:09:29.398Z,24.44
2023-02-17T03:10:29.358Z,24.44
2023-02-17T03:11:29.343Z,24.44
2023-02-17T03:12:29.302Z,24.41
2023-02-17T03:13:30.005Z,24.43
2023-02-17T03:14:29.239Z,24.46
2023-02-17T03:15:29.209Z,24.43
2023-02-17T03:16:29.212Z,24.44
2023-02-17T03:17:29.129Z,24.43
2023-02-17T03:18:29.105Z,24.44
2023-02-17T03:19:29.199Z,24.44
2023-02-17T03:20:29.028Z,24.46
2023-02-17T03:21:28.999Z,24.44
2023-02-17T03:22:28.984Z,24.44
2023-02-17T03:23:28.950Z,24.44
2023-02-17T03:24:28.908Z,24.46
2023-02-17T03:25:28.880Z,24.44
2023-02-17T03:26:28.852Z,24.43
2023-02-17T03:27:28.824Z,24.44
2023-02-17T03:28:28.796Z,24.41
2023-02-17T03:29:28.787Z,24.43
2023-02-17T03:30:28.793Z,24.43
2023-02-17T03:31:30.805Z,24.44
2023-02-17T03:32:28.702Z,24.44
2023-02-17T03:33:28.684Z,24.43
2023-02-17T03:34:28.660Z,24.44
2023-02-17T03:35:28.654Z,24.46
2023-02-17T03:36:28.609Z,24.44
2023-02-17T03:37:28.585Z,24.44
2023-02-17T03:38:28.553Z,24.44
2023-02-17T03:39:28.513Z,24.43
2023-02-17T03:40:28.490Z,24.41
2023-02-17T03:41:28.474Z,24.46
2023-02-17T03:42:28.442Z,24.43
2023-02-17T03:43:28.416Z,24.43
2023-02-17T03:44:28.403Z,24.41
2023-02-17T03:45:28.353Z,24.43
2023-02-17T03:46:28.326Z,24.43
2023-02-17T03:47:28.309Z,24.46
2023-02-17T03:48:28.261Z,24.47
2023-02-17T03:49:28.235Z,24.44
2023-02-17T03:50:28.204Z,24.44
2023-02-17T03:51:28.204Z,24.46
2023-02-17T03:52:28.166Z,24.43
2023-02-17T03:53:28.126Z,24.46
2023-02-17T03:54:28.096Z,24.41
2023-02-17T03:55:28.069Z,24.43
2023-02-17T03:56:28.039Z,24.43
2023-02-17T03:57:28.027Z,24.43
2023-02-17T03:58:28.021Z,24.43
2023-02-17T03:59:27.960Z,24.43
2023-02-17T04:00:27.924Z,24.43
2023-02-17T04:01:27.964Z,24.44
2023-02-17T04:02:27.874Z,24.44
2023-02-17T04:03:27.836Z,24.41
2023-02-17T04:04:27.827Z,24.43
2023-02-17T04:05:27.773Z,24.44
2023-02-17T04:06:27.735Z,24.43
2023-02-17T04:07:27.726Z,24.43
2023-02-17T04:08:27.669Z,24.43
2023-02-17T04:09:27.642Z,24.41
2023-02-17T04:10:27.617Z,24.44
2023-02-17T04:11:27.588Z,24.41
2023-02-17T04:12:27.537Z,24.41
2023-02-17T04:13:27.509Z,24.44
2023-02-17T04:14:27.479Z,24.44
2023-02-17T04:15:27.510Z,24.43
2023-02-17T04:16:27.430Z,24.43
2023-02-17T04:17:27.385Z,24.44
2023-02-17T04:18:27.348Z,24.43
2023-02-17T04:19:27.307Z,24.44
2023-02-17T04:20:27.272Z,24.47
2023-02-17T04:21:27.220Z,24.41
2023-02-17T04:22:27.185Z,24.43
2023-02-17T04:23:27.171Z,24.46
2023-02-17T04:24:27.113Z,24.44
2023-02-17T04:25:27.077Z,24.43
2023-02-17T04:26:27.044Z,24.41
2023-02-17T04:27:27.024Z,24.44
2023-02-17T04:28:27.005Z,24.43
2023-02-17T04:29:26.971Z,24.44
2023-02-17T04:30:26.998Z,24.44
2023-02-17T04:31:27.066Z,24.44
2023-02-17T04:32:26.883Z,24.44
2023-02-17T04:33:26.853Z,24.44
2023-02-17T04:34:26.823Z,24.44
2023-02-17T04:35:26.789Z,24.44
2023-02-17T04:36:26.767Z,24.41
2023-02-17T04:37:26.723Z,24.43
2023-02-17T04:38:26.691Z,24.43
2023-02-17T04:39:26.682Z,24.41
2023-02-17T04:40:26.624Z,24.41
2023-02-17T04:41:26.587Z,24.43
2023-02-17T04:42:26.556Z,24.46
2023-02-17T04:43:26.526Z,24.44
2023-02-17T04:44:26.499Z,24.43
2023-02-17T04:45:26.472Z,24.43
2023-02-17T04:46:26.477Z,24.41
2023-02-17T04:47:26.391Z,24.44
2023-02-17T04:48:26.343Z,24.40
2023-02-17T04:49:26.306Z,24.44
2023-02-17T04:50:26.313Z,24.47
2023-02-17T04:51:26.243Z,24.44
2023-02-17T04:52:26.212Z,24.43
2023-02-17T04:53:26.195Z,24.46
2023-02-17T04:54:26.158Z,24.46
2023-02-17T04:55:26.152Z,24.44
2023-02-17T04:56:26.103Z,24.43
2023-02-17T04:57:26.073Z,24.43
2023-02-17T04:58:26.051Z,24.43
2023-02-17T04:59:25.992Z,24.43
2023-02-17T05:00:25.950Z,24.44
2023-02-17T05:01:25.989Z,24.46
2023-02-17T05:02:25.896Z,24.44
2023-02-17T05:03:25.884Z,24.41
2023-02-17T05:04:25.923Z,24.43
2023-02-17T05:05:25.829Z,24.44
2023-02-17T05:06:25.811Z,24.43
2023-02-17T05:07:25.787Z,24.46
2023-02-17T05:08:25.796Z,24.46
2023-02-17T05:09:25.724Z,24.44
2023-02-17T05:10:25.705Z,24.46
2023-02-17T05:11:25.717Z,24.46
2023-02-17T05:12:25.646Z,24.43
2023-02-17T05:13:25.632Z,24.44
2023-02-17T05:14:25.598Z,24.47
2023-02-17T05:15:25.575Z,24.43
2023-02-17T05:16:25.638Z,24.44
2023-02-17T05:17:25.504Z,24.43
2023-02-17T05:18:25.503Z,24.44
2023-02-17T05:19:25.445Z,24.46
2023-02-17T05:20:25.430Z,24.44
2023-02-17T05:21:25.398Z,24.43
2023-02-17T05:22:25.374Z,24.43
2023-02-17T05:23:25.349Z,24.44
2023-02-17T05:24:25.329Z,24.43
2023-02-17T05:25:25.300Z,24.44
2023-02-17T05:26:25.279Z,24.44
2023-02-17T05:27:25.269Z,24.43
2023-02-17T05:28:25.217Z,24.43
2023-02-17T05:29:25.175Z,24.43
2023-02-17T05:30:25.201Z,24.41
2023-02-17T05:31:25.245Z,24.43
2023-02-17T05:32:25.091Z,24.41
2023-02-17T05:33:25.058Z,24.43
2023-02-17T05:34:25.034Z,24.44
2023-02-17T05:35:25.008Z,24.41
2023-02-17T05:36:24.983Z,24.41
2023-02-17T05:37:24.964Z,24.40
2023-02-17T05:38:24.923Z,24.41
2023-02-17T05:39:24.939Z,24.41
2023-02-17T05:40:24.870Z,24.41
2023-02-17T05:41:24.840Z,24.39
2023-02-17T05:42:24.817Z,24.40
2023-02-17T05:43:24.804Z,24.39
2023-02-17T05:44:24.749Z,24.41
2023-02-17T05:45:24.712Z,24.39
2023-02-17T05:46:24.711Z,24.41
2023-02-17T05:47:26.646Z,24.41
2023-02-17T05:48:24.624Z,24.40
2023-02-17T05:49:24.586Z,24.41
2023-02-17T05:50:24.605Z,24.40
2023-02-17T05:51:24.520Z,24.41
2023-02-17T05:52:24.482Z,24.39
2023-02-17T05:53:24.439Z,24.39
2023-02-17T05:54:24.400Z,24.40
2023-02-17T05:55:24.362Z,24.41
2023-02-17T05:56:24.386Z,24.41
2023-02-17T05:57:24.305Z,24.40
2023-02-17T05:58:31.271Z,24.41
2023-02-17T05:59:24.271Z,24.41
2023-02-17T06:00:24.193Z,24.40
2023-02-17T06:01:24.159Z,24.41
2023-02-17T06:02:24.126Z,24.41
2023-02-17T06:03:24.092Z,24.40
2023-02-17T06:04:24.136Z,24.41
2023-02-17T06:05:24.038Z,24.41
2023-02-17T06:06:24.012Z,24.40
2023-02-17T06:07:23.986Z,24.41
2023-02-17T06:08:23.933Z,24.41
2023-02-17T06:09:23.897Z,24.40
2023-02-17T06:10:23.873Z,24.41
2023-02-17T06:11:23.848Z,24.41
2023-02-17T06:12:23.860Z,24.40
2023-02-17T06:13:23.797Z,24.39
2023-02-17T06:14:23.788Z,24.41
2023-02-17T06:15:23.733Z,24.43
2023-02-17T06:16:23.740Z,24.41
2023-02-17T06:17:23.672Z,24.40
2023-02-17T06:18:23.649Z,24.40
2023-02-17T06:19:23.617Z,24.43
2023-02-17T06:20:23.583Z,24.43
2023-02-17T06:21:23.560Z,24.41
2023-02-17T06:22:23.550Z,24.41
2023-02-17T06:23:23.492Z,24.43
2023-02-17T06:24:23.453Z,24.43
2023-02-17T06:25:23.424Z,24.43
2023-02-17T06:26:23.500Z,24.43
2023-02-17T06:27:23.357Z,24.39
2023-02-17T06:28:23.338Z,24.41
2023-02-17T06:29:23.307Z,24.41
2023-02-17T06:30:23.390Z,24.44
2023-02-17T06:31:23.367Z,24.41
2023-02-17T06:32:23.217Z,24.44
2023-02-17T06:33:23.198Z,24.43
2023-02-17T06:34:23.182Z,24.41
2023-02-17T06:35:23.132Z,24.41
2023-02-17T06:36:23.104Z,24.41
2023-02-17T06:37:23.088Z,24.44
2023-02-17T06:38:23.204Z,24.40
2023-02-17T06:39:23.029Z,24.41
2023-02-17T06:40:22.996Z,24.43
2023-02-17T06:41:22.968Z,24.41
2023-02-17T06:42:22.947Z,24.41
2023-02-17T06:43:22.944Z,24.41
2023-02-17T06:44:22.894Z,24.41
2023-02-17T06:45:22.861Z,24.41
2023-02-17T06:46:22.856Z,24.40
2023-02-17T06:47:22.810Z,24.43
2023-02-17T06:48:22.800Z,24.41
2023-02-17T06:49:22.747Z,24.43
2023-02-17T06:50:22.709Z,24.40
2023-02-17T06:51:22.668Z,24.43
2023-02-17T06:52:22.638Z,24.41
2023-02-17T06:53:22.632Z,24.41
2023-02-17T06:54:22.599Z,24.43
2023-02-17T06:55:22.553Z,24.40
2023-02-17T06:56:22.522Z,24.41
2023-02-17T06:57:22.502Z,24.43
2023-02-17T06:58:22.493Z,24.41
2023-02-17T06:59:22.441Z,24.46
2023-02-17T07:00:22.410Z,24.41
2023-02-17T07:01:22.375Z,24.40
2023-02-17T07:02:22.524Z,24.44
2023-02-17T07:03:22.374Z,24.43
2023-02-17T07:04:22.304Z,24.46
2023-02-17T07:05:22.260Z,24.43
2023-02-17T07:06:22.221Z,24.41
2023-02-17T07:07:22.181Z,24.43
2023-02-17T07:08:22.170Z,24.41
2023-02-17T07:09:22.107Z,24.44
2023-02-17T07:10:22.075Z,24.44
2023-02-17T07:11:22.037Z,24.46
2023-02-17T07:12:22.017Z,24.43
2023-02-17T07:13:22.010Z,24.43
2023-02-17T07:14:23.446Z,24.41
2023-02-17T07:15:21.931Z,24.46
2023-02-17T07:16:21.963Z,24.44
2023-02-17T07:17:21.890Z,24.44
2023-02-17T07:18:22.387Z,24.44
2023-02-17T07:19:21.850Z,24.41
2023-02-17T07:20:21.827Z,24.44
2023-02-17T07:21:21.805Z,24.43
2023-02-17T07:22:21.776Z,24.46
2023-02-17T07:23:21.848Z,24.44
2023-02-17T07:24:21.738Z,24.43
2023-02-17T07:25:21.712Z,24.43
2023-02-17T07:26:21.675Z,24.43
2023-02-17T07:27:21.646Z,24.46
2023-02-17T07:28:21.619Z,24.44
2023-02-17T07:29:21.595Z,24.44
2023-02-17T07:30:21.559Z,24.46
2023-02-17T07:31:21.651Z,24.44
2023-02-17T07:32:21.475Z,24.44
2023-02-17T07:33:21.471Z,24.46
2023-02-17T07:34:21.442Z,24.43
2023-02-17T07:35:21.379Z,24.48
2023-02-17T07:36:21.344Z,24.47
2023-02-17T07:37:21.303Z,24.47
2023-02-17T07:38:21.313Z,24.47
2023-02-17T07:39:21.244Z,24.47
2023-02-17T07:40:21.216Z,24.48
2023-02-17T07:41:21.176Z,24.48
2023-02-17T07:42:21.147Z,24.48
2023-02-17T07:43:21.199Z,24.48
2023-02-17T07:44:21.089Z,24.48
2023-02-17T07:45:21.061Z,24.48
2023-02-17T07:46:21.121Z,24.48
2023-02-17T07:47:20.991Z,24.47
2023-02-17T07:48:20.944Z,24.48
2023-02-17T07:49:20.943Z,24.48
2023-02-17T07:50:20.887Z,24.48
2023-02-17T07:51:20.837Z,24.48
2023-02-17T07:52:20.811Z,24.50
2023-02-17T07:53:20.778Z,24.47
2023-02-17T07:54:20.763Z,24.48
2023-02-17T07:55:21.115Z,24.50
2023-02-17T07:56:20.683Z,24.47
2023-02-17T07:57:20.646Z,24.48
2023-02-17T07:58:20.625Z,24.47
2023-02-17T07:59:20.596Z,24.50
2023-02-17T08:00:20.598Z,24.48
2023-02-17T08:01:20.539Z,24.48
2023-02-17T08:02:20.588Z,24.51
2023-02-17T08:03:20.513Z,24.50
2023-02-17T08:04:20.521Z,24.47
2023-02-17T08:05:20.428Z,24.51
2023-02-17T08:06:20.395Z,24.51
2023-02-17T08:07:20.342Z,24.48
2023-02-17T08:08:20.306Z,24.51
2023-02-17T08:09:20.314Z,24.50
2023-02-17T08:10:20.248Z,24.48
2023-02-17T08:11:20.237Z,24.51
2023-02-17T08:12:20.169Z,24.51
2023-02-17T08:13:20.144Z,24.50
2023-02-17T08:14:20.129Z,24.53
2023-02-17T08:15:20.076Z,24.51
2023-02-17T08:16:20.075Z,24.51
2023-02-17T08:17:20.048Z,24.51
2023-02-17T08:18:19.971Z,24.51
2023-02-17T08:19:19.999Z,24.50
2023-02-17T08:20:19.901Z,24.51
2023-02-17T08:21:19.870Z,24.50
2023-02-17T08:22:19.881Z,24.53
2023-02-17T08:23:19.816Z,24.50
2023-02-17T08:24:19.864Z,24.53
2023-02-17T08:25:19.766Z,24.51
2023-02-17T08:26:19.722Z,24.50
2023-02-17T08:27:19.727Z,24.51
2023-02-17T08:28:19.669Z,24.50
2023-02-17T08:29:19.648Z,24.51
2023-02-17T08:30:19.640Z,24.53
2023-02-17T08:31:19.652Z,24.47
2023-02-17T08:32:19.622Z,24.50
2023-02-17T08:33:19.521Z,24.48
2023-02-17T08:34:19.481Z,24.50
2023-02-17T08:35:19.482Z,24.51
2023-02-17T08:36:19.430Z,24.51
2023-02-17T08:37:19.424Z,24.53
2023-02-17T08:38:19.403Z,24.53
2023-02-17T08:39:19.335Z,24.51
2023-02-17T08:40:19.312Z,24.51
2023-02-17T08:41:19.273Z,24.53
2023-02-17T08:42:19.230Z,24.53
2023-02-17T08:43:19.224Z,24.51
2023-02-17T08:44:19.229Z,24.53
2023-02-17T08:45:19.117Z,24.55
2023-02-17T08:46:19.142Z,24.53
2023-02-17T08:47:19.102Z,24.51
2023-02-17T08:48:19.022Z,24.51
2023-02-17T08:49:18.994Z,24.53
2023-02-17T08:50:18.995Z,24.54
2023-02-17T08:51:18.951Z,24.53
2023-02-17T08:52:18.880Z,24.55
2023-02-17T08:53:18.839Z,24.51
2023-02-17T08:54:18.845Z,24.53
2023-02-17T08:55:18.797Z,24.51
2023-02-17T08:56:18.778Z,24.53
2023-02-17T08:57:18.692Z,24.51
2023-02-17T08:58:18.738Z,24.51
2023-02-17T08:59:18.612Z,24.53
2023-02-17T09:00:18.625Z,24.54
2023-02-17T09:01:18.563Z,24.54
2023-02-17T09:02:18.567Z,24.54
2023-02-17T09:03:18.493Z,24.54
2023-02-17T09:04:18.465Z,24.55
2023-02-17T09:05:18.441Z,24.55
2023-02-17T09:06:18.359Z,24.53
2023-02-17T09:07:18.317Z,24.55
2023-02-17T09:08:18.278Z,24.54
2023-02-17T09:09:18.244Z,24.55
2023-02-17T09:10:18.264Z,24.57
2023-02-17T09:11:18.179Z,24.57
2023-02-17T09:12:18.200Z,24.58
2023-02-17T09:13:18.119Z,24.58
2023-02-17T09:14:18.078Z,24.58
2023-02-17T09:15:18.098Z,24.57
2023-02-17T09:16:18.051Z,24.58
2023-02-17T09:17:17.969Z,24.60
2023-02-17T09:18:17.931Z,24.55
2023-02-17T09:19:17.884Z,24.55
2023-02-17T09:20:24.724Z,24.61
2023-02-17T09:21:17.817Z,24.57
2023-02-17T09:22:31.118Z,24.58
2023-02-17T09:23:17.750Z,24.58
2023-02-17T09:24:17.727Z,24.57
2023-02-17T09:25:17.648Z,24.60
2023-02-17T09:26:17.624Z,24.57
2023-02-17T09:27:17.566Z,24.58
2023-02-17T09:28:17.558Z,24.58
2023-02-17T09:29:17.507Z,24.60
2023-02-17T09:30:17.507Z,24.58
2023-02-17T09:31:17.557Z,24.58
2023-02-17T09:32:17.507Z,24.58
2023-02-17T09:33:17.367Z,24.60
2023-02-17T09:34:17.362Z,24.58
2023-02-17T09:35:17.308Z,24.61
2023-02-17T09:36:17.351Z,24.60
2023-02-17T09:37:17.249Z,24.60
2023-02-17T09:38:17.226Z,24.60
2023-02-17T09:39:17.232Z,24.61
2023-02-17T09:40:17.188Z,24.60
2023-02-17T09:41:17.205Z,24.60
2023-02-17T09:42:17.111Z,24.60
2023-02-17T09:43:17.090Z,24.61
2023-02-17T09:44:17.021Z,24.60
2023-02-17T09:45:17.017Z,24.60
2023-02-17T09:46:16.995Z,24.61
2023-02-17T09:47:17.059Z,24.61
2023-02-17T09:48:16.934Z,24.63
2023-02-17T09:49:16.883Z,24.63
2023-02-17T09:50:16.875Z,24.61
2023-02-17T09:51:16.868Z,24.63
2023-02-17T09:52:16.882Z,24.64
2023-02-17T09:53:16.734Z,24.61
2023-02-17T09:54:16.714Z,24.58
2023-02-17T09:55:16.671Z,24.64
2023-02-17T09:56:16.723Z,24.64
2023-02-17T09:57:16.668Z,24.63
2023-02-17T09:58:16.582Z,24.61
2023-02-17T09:59:16.619Z,24.63
2023-02-17T10:00:16.522Z,24.64
2023-02-17T10:01:16.510Z,24.65
2023-02-17T10:02:16.512Z,24.65
2023-02-17T10:03:18.270Z,24.64
2023-02-17T10:04:16.613Z,24.63
2023-02-17T10:05:16.469Z,24.61
2023-02-17T10:06:16.361Z,24.63
2023-02-17T10:07:16.329Z,24.64
2023-02-17T10:08:16.266Z,24.64
2023-02-17T10:09:16.290Z,24.64
2023-02-17T10:10:16.281Z,24.61
2023-02-17T10:11:16.187Z,24.61
2023-02-17T10:12:16.162Z,24.61
2023-02-17T10:13:16.106Z,24.63
2023-02-17T10:14:16.105Z,24.64
2023-02-17T10:15:17.669Z,24.63
2023-02-17T10:16:16.122Z,24.64
2023-02-17T10:17:16.090Z,24.64
2023-02-17T10:18:16.021Z,24.64
2023-02-17T10:19:16.031Z,24.64
2023-02-17T10:20:15.980Z,24.64
2023-02-17T10:21:15.962Z,24.65
2023-02-17T10:22:15.913Z,24.64
2023-02-17T10:23:15.894Z,24.65
2023-02-17T10:24:15.988Z,24.67
2023-02-17T10:25:15.923Z,24.65
2023-02-17T10:26:15.861Z,24.67
2023-02-17T10:27:15.784Z,24.65
2023-02-17T10:28:15.762Z,24.67
2023-02-17T10:29:15.813Z,24.67
2023-02-17T10:30:15.756Z,24.67
2023-02-17T10:31:15.789Z,24.68
2023-02-17T10:32:17.788Z,24.68
2023-02-17T10:33:15.620Z,24.65
2023-02-17T10:34:15.561Z,24.67
2023-02-17T10:35:15.585Z,24.68
2023-02-17T10:36:15.589Z,24.68
2023-02-17T10:37:15.562Z,24.68
2023-02-17T10:38:15.531Z,24.67
2023-02-17T10:39:15.438Z,24.67
2023-02-17T10:40:15.357Z,24.68
2023-02-17T10:41:15.329Z,24.68
2023-02-17T10:42:15.297Z,24.71
2023-02-17T10:43:15.316Z,24.71
2023-02-17T10:44:15.264Z,24.68
2023-02-17T10:45:15.249Z,24.70
2023-02-17T10:46:15.278Z,24.71
2023-02-17T10:47:15.172Z,24.71
2023-02-17T10:48:15.156Z,24.74
2023-02-17T10:49:15.140Z,24.72
2023-02-17T10:50:15.111Z,24.72
2023-02-17T10:51:15.085Z,24.72
2023-02-17T10:52:15.044Z,24.72
2023-02-17T10:53:15.021Z,24.74
2023-02-17T10:54:14.996Z,24.71
2023-02-17T10:55:22.651Z,24.75
2023-02-17T10:56:14.947Z,24.72
2023-02-17T10:57:14.926Z,24.72
2023-02-17T10:58:14.907Z,24.72
2023-02-17T10:59:14.884Z,24.74
2023-02-17T11:00:14.894Z,24.74
2023-02-17T11:01:14.819Z,24.71
2023-02-17T11:02:14.818Z,24.71
2023-02-17T11:03:14.766Z,24.72
2023-02-17T11:04:14.885Z,24.72
2023-02-17T11:05:14.701Z,24.71
2023-02-17T11:06:14.677Z,24.70
2023-02-17T11:07:14.707Z,24.72
2023-02-17T11:08:14.625Z,24.71
2023-02-17T11:09:14.597Z,24.72
2023-02-17T11:10:14.575Z,24.70
2023-02-17T11:11:14.547Z,24.71
2023-02-17T11:12:14.532Z,24.70
2023-02-17T11:13:14.507Z,24.72
2023-02-17T11:14:14.470Z,24.70
2023-02-17T11:15:14.446Z,24.70
2023-02-17T11:16:14.685Z,24.68
2023-02-17T11:17:14.390Z,24.71
2023-02-17T11:18:14.418Z,24.71
2023-02-17T11:19:14.323Z,24.70
2023-02-17T11:20:14.297Z,24.71
2023-02-17T11:21:14.267Z,24.70
2023-02-17T11:22:14.232Z,24.70
2023-02-17T11:23:14.226Z,24.72
2023-02-17T11:24:14.172Z,24.72
2023-02-17T11:25:14.154Z,24.70
2023-02-17T11:26:14.127Z,24.72
2023-02-17T11:27:14.093Z,24.70
2023-02-17T11:28:14.068Z,24.71
2023-02-17T11:29:14.030Z,24.72
2023-02-17T11:30:14.016Z,24.70
2023-02-17T11:31:14.149Z,24.70
2023-02-17T11:32:14.091Z,24.70
2023-02-17T11:33:13.914Z,24.71
2023-02-17T11:34:13.920Z,24.71
2023-02-17T11:35:13.875Z,24.68
2023-02-17T11:36:13.838Z,24.70
2023-02-17T11:37:13.865Z,24.71
2023-02-17T11:38:13.802Z,24.70
2023-02-17T11:39:13.751Z,24.71
2023-02-17T11:40:13.738Z,24.70
2023-02-17T11:41:13.704Z,24.71
2023-02-17T11:42:13.676Z,24.70
2023-02-17T11:43:13.735Z,24.72
2023-02-17T11:44:13.591Z,24.68
2023-02-17T11:45:13.565Z,24.72
2023-02-17T11:46:13.712Z,24.72
2023-02-17T11:47:13.514Z,24.71
2023-02-17T11:48:13.510Z,24.70
2023-02-17T11:49:13.459Z,24.71
2023-02-17T11:50:13.448Z,24.72
2023-02-17T11:51:13.432Z,24.72
2023-02-17T11:52:13.358Z,24.72
2023-02-17T11:53:13.356Z,24.74
2023-02-17T11:54:13.303Z,24.72
2023-02-17T11:55:13.261Z,24.72
2023-02-17T11:56:13.234Z,24.72
2023-02-17T11:57:13.212Z,24.72
2023-02-17T11:58:13.194Z,24.77
2023-02-17T11:59:13.145Z,24.74
2023-02-17T12:00:13.120Z,24.75
2023-02-17T12:01:13.086Z,24.77
2023-02-17T12:02:13.061Z,24.77
2023-02-17T12:03:13.187Z,24.75
2023-02-17T12:04:13.015Z,24.77
2023-02-17T12:05:13.051Z,24.78
2023-02-17T12:06:12.947Z,24.77
2023-02-17T12:07:12.887Z,24.75
2023-02-17T12:08:12.872Z,24.77
2023-02-17T12:09:12.847Z,24.75
2023-02-17T12:10:12.807Z,24.75
2023-02-17T12:11:12.781Z,24.77
2023-02-17T12:12:12.749Z,24.77
2023-02-17T12:13:12.752Z,24.75
2023-02-17T12:14:12.698Z,24.77
2023-02-17T12:15:12.670Z,24.74
2023-02-17T12:16:12.671Z,24.75
2023-02-17T12:17:12.611Z,24.75
2023-02-17T12:18:12.609Z,24.74
2023-02-17T12:19:12.561Z,24.74
2023-02-17T12:20:12.520Z,24.74
2023-02-17T12:21:12.500Z,24.74
2023-02-17T12:22:12.500Z,24.71
2023-02-17T12:23:12.493Z,24.72
2023-02-17T12:24:12.453Z,24.72
2023-02-17T12:25:12.375Z,24.72
2023-02-17T12:26:12.343Z,24.72
2023-02-17T12:27:12.320Z,24.71
2023-02-17T12:28:12.290Z,24.72
2023-02-17T12:29:12.263Z,24.70
2023-02-17T12:30:12.277Z,24.70
2023-02-17T12:31:12.354Z,24.72
2023-02-17T12:32:12.299Z,24.70
2023-02-17T12:33:12.178Z,24.70
2023-02-17T12:34:12.152Z,24.72
2023-02-17T12:35:12.095Z,24.70
2023-02-17T12:36:12.053Z,24.71
2023-02-17T12:37:12.019Z,24.67
2023-02-17T12:38:12.053Z,24.67
2023-02-17T12:39:12.062Z,24.68
2023-02-17T12:40:11.936Z,24.67
2023-02-17T12:41:11.902Z,24.68
2023-02-17T12:42:11.865Z,24.68
2023-02-17T12:43:11.831Z,24.65
2023-02-17T12:44:12.742Z,24.67
2023-02-17T12:45:11.769Z,24.65
2023-02-17T12:46:11.834Z,24.67
2023-02-17T12:47:11.735Z,24.65
2023-02-17T12:48:11.733Z,24.65
2023-02-17T12:49:11.680Z,24.65
2023-02-17T12:50:11.650Z,24.65
2023-02-17T12:51:11.624Z,24.65
2023-02-17T12:52:11.606Z,24.64
2023-02-17T12:53:11.589Z,24.64
2023-02-17T12:54:11.615Z,24.63
2023-02-17T12:55:11.522Z,24.64
2023-02-17T12:56:11.493Z,24.63
2023-02-17T12:57:11.512Z,24.61
2023-02-17T12:58:11.513Z,24.61
2023-02-17T12:59:11.471Z,24.63
2023-02-17T13:00:11.390Z,24.64
2023-02-17T13:01:11.417Z,24.61
2023-02-17T13:02:11.399Z,24.61
2023-02-17T13:03:11.316Z,24.61
2023-02-17T13:04:11.310Z,24.60
2023-02-17T13:05:11.256Z,24.60
2023-02-17T13:06:11.228Z,24.58
2023-02-17T13:07:11.207Z,24.60
2023-02-17T13:08:11.179Z,24.60
2023-02-17T13:09:11.174Z,24.58
2023-02-17T13:10:11.139Z,24.58
2023-02-17T13:11:11.092Z,24.60
2023-02-17T13:12:11.055Z,24.58
2023-02-17T13:13:11.064Z,24.57
2023-02-17T13:14:11.028Z,24.61
2023-02-17T13:15:10.950Z,24.58
2023-02-17T13:16:11.314Z,24.58
2023-02-17T13:17:10.888Z,24.61
2023-02-17T13:18:10.849Z,24.58
2023-02-17T13:19:10.812Z,24.61
2023-02-17T13:20:10.767Z,24.60
2023-02-17T13:21:11.785Z,24.60
2023-02-17T13:22:10.709Z,24.61
2023-02-17T13:23:10.684Z,24.61
2023-02-17T13:24:10.636Z,24.63
2023-02-17T13:25:10.641Z,24.60
2023-02-17T13:26:10.602Z,24.60
2023-02-17T13:27:10.578Z,24.60
2023-02-17T13:28:10.523Z,24.60
2023-02-17T13:29:10.519Z,24.60
2023-02-17T13:30:10.522Z,24.63
2023-02-17T13:31:10.527Z,24.64
2023-02-17T13:32:10.470Z,24.60
2023-02-17T13:33:10.347Z,24.61
2023-02-17T13:34:10.392Z,24.64
2023-02-17T13:35:10.291Z,24.63
2023-02-17T13:36:10.270Z,24.61
2023-02-17T13:37:10.223Z,24.61
2023-02-17T13:38:10.226Z,24.61
2023-02-17T13:39:10.173Z,24.60
2023-02-17T13:40:10.124Z,24.60
2023-02-17T13:41:10.095Z,24.60
2023-02-17T13:42:10.085Z,24.57
2023-02-17T13:43:10.068Z,24.58
2023-02-17T13:44:10.004Z,24.58
2023-02-17T13:45:09.968Z,24.55
2023-02-17T13:46:10.299Z,24.54